sensor_id;sensor_type;location;lat;lon;timestamp;P1;durP1;ratioP1;P2;durP2;ratioP2
13927;SDS011;7036;50.834;4.718;2023-09-18T00:00:03;4.10;;;3.53;;
13927;SDS011;7036;50.834;4.718;2023-09-18T00:02:29;4.03;;;3.73;;
13927;SDS011;7036;50.834;4.718;2023-09-18T00:04:56;4.53;;;3.80;;
13927;SDS011;7036;50.834;4.718;2023-09-18T00:07:23;4.03;;;3.20;;
13927;SDS011;7036;50.834;4.718;2023-09-18T00:09:50;4.87;;;3.50;;
13927;SDS011;7036;50.834;4.718;2023-09-18T00:12:17;4.50;;;3.53;;
13927;SDS011;7036;50.834;4.718;2023-09-18T00:14:47;4.33;;;3.60;;
13927;SDS011;7036;50.834;4.718;2023-09-18T00:17:11;4.37;;;3.67;;
13927;SDS011;7036;50.834;4.718;2023-09-18T00:19:38;4.00;;;3.60;;
13927;SDS011;7036;50.834;4.718;2023-09-18T00:22:05;3.53;;;3.23;;
13927;SDS011;7036;50.834;4.718;2023-09-18T00:24:32;4.53;;;3.43;;
13927;SDS011;7036;50.834;4.718;2023-09-18T00:26:59;3.60;;;3.30;;
13927;SDS011;7036;50.834;4.718;2023-09-18T00:29:26;3.73;;;3.40;;
13927;SDS011;7036;50.834;4.718;2023-09-18T00:31:53;3.93;;;3.60;;
13927;SDS011;7036;50.834;4.718;2023-09-18T00:34:20;4.67;;;3.33;;
13927;SDS011;7036;50.834;4.718;2023-09-18T00:36:47;3.57;;;3.27;;
13927;SDS011;7036;50.834;4.718;2023-09-18T00:39:14;4.10;;;3.63;;
13927;SDS011;7036;50.834;4.718;2023-09-18T00:41:41;3.33;;;3.03;;
13927;SDS011;7036;50.834;4.718;2023-09-18T00:44:09;3.30;;;3.00;;
13927;SDS011;7036;50.834;4.718;2023-09-18T00:46:35;3.50;;;3.20;;
13927;SDS011;7036;50.834;4.718;2023-09-18T00:49:02;3.87;;;3.20;;
13927;SDS011;7036;50.834;4.718;2023-09-18T00:51:29;4.37;;;3.70;;
13927;SDS011;7036;50.834;4.718;2023-09-18T00:53:56;3.77;;;3.47;;
13927;SDS011;7036;50.834;4.718;2023-09-18T00:56:25;3.63;;;3.40;;
13927;SDS011;7036;50.834;4.718;2023-09-18T00:58:53;4.00;;;3.70;;
13927;SDS011;7036;50.834;4.718;2023-09-18T01:01:22;3.83;;;3.47;;
13927;SDS011;7036;50.834;4.718;2023-09-18T01:03:50;3.83;;;3.10;;
13927;SDS011;7036;50.834;4.718;2023-09-18T01:06:16;3.57;;;3.27;;
13927;SDS011;7036;50.834;4.718;2023-09-18T01:08:43;4.07;;;3.70;;
13927;SDS011;7036;50.834;4.718;2023-09-18T01:11:17;3.40;;;3.10;;
13927;SDS011;7036;50.834;4.718;2023-09-18T01:13:38;2.83;;;2.63;;
13927;SDS011;7036;50.834;4.718;2023-09-18T01:16:14;3.40;;;3.10;;
13927;SDS011;7036;50.834;4.718;2023-09-18T01:18:53;3.30;;;3.00;;
13927;SDS011;7036;50.834;4.718;2023-09-18T01:21:19;3.67;;;3.23;;
13927;SDS011;7036;50.834;4.718;2023-09-18T01:23:49;3.50;;;3.20;;
13927;SDS011;7036;50.834;4.718;2023-09-18T01:26:16;3.10;;;2.90;;
13927;SDS011;7036;50.834;4.718;2023-09-18T01:28:43;3.37;;;3.07;;
13927;SDS011;7036;50.834;4.718;2023-09-18T01:31:10;3.47;;;3.17;;
13927;SDS011;7036;50.834;4.718;2023-09-18T01:33:37;3.37;;;3.07;;
13927;SDS011;7036;50.834;4.718;2023-09-18T01:36:04;4.03;;;3.27;;
13927;SDS011;7036;50.834;4.718;2023-09-18T01:38:30;3.47;;;3.17;;
13927;SDS011;7036;50.834;4.718;2023-09-18T01:40:57;3.57;;;3.20;;
13927;SDS011;7036;50.834;4.718;2023-09-18T01:43:24;4.17;;;3.77;;
13927;SDS011;7036;50.834;4.718;2023-09-18T01:45:51;3.50;;;3.20;;
13927;SDS011;7036;50.834;4.718;2023-09-18T01:48:18;3.80;;;3.23;;
13927;SDS011;7036;50.834;4.718;2023-09-18T01:50:45;3.60;;;3.30;;
13927;SDS011;7036;50.834;4.718;2023-09-18T01:53:12;3.53;;;3.23;;
13927;SDS011;7036;50.834;4.718;2023-09-18T01:55:39;3.30;;;3.00;;
13927;SDS011;7036;50.834;4.718;2023-09-18T01:58:06;4.27;;;3.07;;
13927;SDS011;7036;50.834;4.718;2023-09-18T02:00:33;3.17;;;2.93;;
13927;SDS011;7036;50.834;4.718;2023-09-18T02:03:00;3.67;;;2.90;;
13927;SDS011;7036;50.834;4.718;2023-09-18T02:05:28;4.13;;;3.30;;
13927;SDS011;7036;50.834;4.718;2023-09-18T02:07:54;3.50;;;3.20;;
13927;SDS011;7036;50.834;4.718;2023-09-18T02:10:21;3.40;;;2.83;;
13927;SDS011;7036;50.834;4.718;2023-09-18T02:12:48;3.30;;;3.03;;
13927;SDS011;7036;50.834;4.718;2023-09-18T02:15:15;3.17;;;2.97;;
13927;SDS011;7036;50.834;4.718;2023-09-18T02:17:42;3.27;;;2.97;;
13927;SDS011;7036;50.834;4.718;2023-09-18T02:20:09;3.10;;;2.90;;
13927;SDS011;7036;50.834;4.718;2023-09-18T02:22:37;3.57;;;2.90;;
13927;SDS011;7036;50.834;4.718;2023-09-18T02:25:04;3.67;;;3.40;;
13927;SDS011;7036;50.834;4.718;2023-09-18T02:27:30;3.23;;;3.03;;
13927;SDS011;7036;50.834;4.718;2023-09-18T02:29:57;2.83;;;2.63;;
13927;SDS011;7036;50.834;4.718;2023-09-18T02:32:24;3.30;;;3.00;;
13927;SDS011;7036;50.834;4.718;2023-09-18T02:34:51;3.17;;;2.97;;
13927;SDS011;7036;50.834;4.718;2023-09-18T02:37:18;4.27;;;3.27;;
13927;SDS011;7036;50.834;4.718;2023-09-18T02:39:45;2.97;;;2.73;;
13927;SDS011;7036;50.834;4.718;2023-09-18T02:42:12;3.50;;;3.20;;
13927;SDS011;7036;50.834;4.718;2023-09-18T02:44:39;3.67;;;3.10;;
13927;SDS011;7036;50.834;4.718;2023-09-18T02:47:06;3.40;;;3.10;;
13927;SDS011;7036;50.834;4.718;2023-09-18T02:49:33;4.20;;;3.10;;
13927;SDS011;7036;50.834;4.718;2023-09-18T02:52:00;3.50;;;2.73;;
13927;SDS011;7036;50.834;4.718;2023-09-18T02:54:26;3.17;;;2.87;;
13927;SDS011;7036;50.834;4.718;2023-09-18T02:56:53;3.20;;;2.90;;
13927;SDS011;7036;50.834;4.718;2023-09-18T02:59:20;3.03;;;2.43;;
13927;SDS011;7036;50.834;4.718;2023-09-18T03:01:47;4.13;;;2.80;;
13927;SDS011;7036;50.834;4.718;2023-09-18T03:04:14;2.80;;;2.60;;
13927;SDS011;7036;50.834;4.718;2023-09-18T03:06:41;3.07;;;2.87;;
13927;SDS011;7036;50.834;4.718;2023-09-18T03:09:08;3.30;;;3.00;;
13927;SDS011;7036;50.834;4.718;2023-09-18T03:11:35;3.13;;;2.93;;
13927;SDS011;7036;50.834;4.718;2023-09-18T03:14:02;3.50;;;2.80;;
13927;SDS011;7036;50.834;4.718;2023-09-18T03:16:29;3.30;;;3.00;;
13927;SDS011;7036;50.834;4.718;2023-09-18T03:18:56;4.30;;;3.10;;
13927;SDS011;7036;50.834;4.718;2023-09-18T03:21:23;3.53;;;3.23;;
13927;SDS011;7036;50.834;4.718;2023-09-18T03:23:50;2.70;;;2.50;;
13927;SDS011;7036;50.834;4.718;2023-09-18T03:26:17;3.23;;;3.03;;
13927;SDS011;7036;50.834;4.718;2023-09-18T03:28:44;2.80;;;2.60;;
13927;SDS011;7036;50.834;4.718;2023-09-18T03:31:10;3.63;;;3.33;;
13927;SDS011;7036;50.834;4.718;2023-09-18T03:33:37;3.10;;;2.90;;
13927;SDS011;7036;50.834;4.718;2023-09-18T03:36:04;3.47;;;3.17;;
13927;SDS011;7036;50.834;4.718;2023-09-18T03:38:31;3.10;;;2.80;;
13927;SDS011;7036;50.834;4.718;2023-09-18T03:41:01;2.73;;;2.53;;
13927;SDS011;7036;50.834;4.718;2023-09-18T03:43:28;2.93;;;2.70;;
13927;SDS011;7036;50.834;4.718;2023-09-18T03:45:55;3.30;;;3.00;;
13927;SDS011;7036;50.834;4.718;2023-09-18T03:48:22;2.67;;;2.47;;
13927;SDS011;7036;50.834;4.718;2023-09-18T03:50:49;2.87;;;2.60;;
13927;SDS011;7036;50.834;4.718;2023-09-18T03:53:16;3.00;;;2.40;;
13927;SDS011;7036;50.834;4.718;2023-09-18T03:55:43;3.20;;;2.90;;
13927;SDS011;7036;50.834;4.718;2023-09-18T03:58:10;2.93;;;2.60;;
13927;SDS011;7036;50.834;4.718;2023-09-18T04:00:36;2.83;;;2.63;;
13927;SDS011;7036;50.834;4.718;2023-09-18T04:03:03;2.77;;;2.57;;
13927;SDS011;7036;50.834;4.718;2023-09-18T04:05:30;2.90;;;2.70;;
13927;SDS011;7036;50.834;4.718;2023-09-18T04:07:57;3.43;;;2.73;;
13927;SDS011;7036;50.834;4.718;2023-09-18T04:10:24;3.27;;;3.00;;
13927;SDS011;7036;50.834;4.718;2023-09-18T04:12:51;3.13;;;2.83;;
13927;SDS011;7036;50.834;4.718;2023-09-18T04:15:18;3.13;;;2.93;;
13927;SDS011;7036;50.834;4.718;2023-09-18T04:17:45;3.40;;;3.10;;
13927;SDS011;7036;50.834;4.718;2023-09-18T04:20:12;4.33;;;3.30;;
13927;SDS011;7036;50.834;4.718;2023-09-18T04:22:43;2.80;;;2.40;;
13927;SDS011;7036;50.834;4.718;2023-09-18T04:25:12;2.90;;;2.50;;
13927;SDS011;7036;50.834;4.718;2023-09-18T04:27:38;3.20;;;2.90;;
13927;SDS011;7036;50.834;4.718;2023-09-18T04:30:06;2.60;;;2.40;;
13927;SDS011;7036;50.834;4.718;2023-09-18T04:32:32;3.00;;;2.80;;
13927;SDS011;7036;50.834;4.718;2023-09-18T04:34:59;3.37;;;3.07;;
13927;SDS011;7036;50.834;4.718;2023-09-18T04:37:26;2.97;;;2.77;;
13927;SDS011;7036;50.834;4.718;2023-09-18T04:39:53;3.10;;;2.80;;
13927;SDS011;7036;50.834;4.718;2023-09-18T04:42:20;3.40;;;3.10;;
13927;SDS011;7036;50.834;4.718;2023-09-18T04:44:47;3.30;;;3.00;;
13927;SDS011;7036;50.834;4.718;2023-09-18T04:47:14;3.47;;;2.53;;
13927;SDS011;7036;50.834;4.718;2023-09-18T04:49:41;3.20;;;2.90;;
13927;SDS011;7036;50.834;4.718;2023-09-18T04:52:08;2.97;;;2.77;;
13927;SDS011;7036;50.834;4.718;2023-09-18T04:54:36;3.63;;;2.70;;
13927;SDS011;7036;50.834;4.718;2023-09-18T04:57:02;2.93;;;2.60;;
13927;SDS011;7036;50.834;4.718;2023-09-18T04:59:29;3.23;;;2.93;;
13927;SDS011;7036;50.834;4.718;2023-09-18T05:01:56;2.97;;;2.57;;
13927;SDS011;7036;50.834;4.718;2023-09-18T05:04:23;3.33;;;2.77;;
13927;SDS011;7036;50.834;4.718;2023-09-18T05:06:50;3.07;;;2.53;;
13927;SDS011;7036;50.834;4.718;2023-09-18T05:09:17;3.43;;;3.13;;
13927;SDS011;7036;50.834;4.718;2023-09-18T05:11:44;2.70;;;2.50;;
13927;SDS011;7036;50.834;4.718;2023-09-18T05:14:11;2.17;;;2.03;;
13927;SDS011;7036;50.834;4.718;2023-09-18T05:16:37;3.60;;;2.63;;
13927;SDS011;7036;50.834;4.718;2023-09-18T05:19:04;3.00;;;2.70;;
13927;SDS011;7036;50.834;4.718;2023-09-18T05:21:31;2.80;;;2.60;;
13927;SDS011;7036;50.834;4.718;2023-09-18T05:23:58;2.87;;;2.57;;
13927;SDS011;7036;50.834;4.718;2023-09-18T05:26:26;3.70;;;2.57;;
13927;SDS011;7036;50.834;4.718;2023-09-18T05:28:53;2.70;;;2.50;;
13927;SDS011;7036;50.834;4.718;2023-09-18T05:31:20;3.10;;;2.80;;
13927;SDS011;7036;50.834;4.718;2023-09-18T05:33:47;3.43;;;2.40;;
13927;SDS011;7036;50.834;4.718;2023-09-18T05:36:14;2.87;;;2.60;;
13927;SDS011;7036;50.834;4.718;2023-09-18T05:38:41;2.90;;;2.70;;
13927;SDS011;7036;50.834;4.718;2023-09-18T05:41:07;2.93;;;2.10;;
13927;SDS011;7036;50.834;4.718;2023-09-18T05:43:35;2.40;;;2.20;;
13927;SDS011;7036;50.834;4.718;2023-09-18T05:46:01;2.80;;;2.60;;
13927;SDS011;7036;50.834;4.718;2023-09-18T05:48:28;2.47;;;2.27;;
13927;SDS011;7036;50.834;4.718;2023-09-18T05:50:55;3.27;;;2.60;;
13927;SDS011;7036;50.834;4.718;2023-09-18T05:53:22;2.70;;;2.50;;
13927;SDS011;7036;50.834;4.718;2023-09-18T05:55:49;3.27;;;2.63;;
13927;SDS011;7036;50.834;4.718;2023-09-18T05:58:16;2.80;;;2.60;;
13927;SDS011;7036;50.834;4.718;2023-09-18T06:00:43;2.60;;;2.40;;
13927;SDS011;7036;50.834;4.718;2023-09-18T06:03:10;2.57;;;2.37;;
13927;SDS011;7036;50.834;4.718;2023-09-18T06:05:39;2.60;;;2.40;;
13927;SDS011;7036;50.834;4.718;2023-09-18T06:08:06;2.73;;;2.53;;
13927;SDS011;7036;50.834;4.718;2023-09-18T06:10:33;2.83;;;2.63;;
13927;SDS011;7036;50.834;4.718;2023-09-18T06:13:00;2.70;;;2.50;;
13927;SDS011;7036;50.834;4.718;2023-09-18T06:15:28;2.77;;;2.57;;
13927;SDS011;7036;50.834;4.718;2023-09-18T06:17:55;3.40;;;2.57;;
13927;SDS011;7036;50.834;4.718;2023-09-18T06:20:22;2.70;;;2.50;;
13927;SDS011;7036;50.834;4.718;2023-09-18T06:22:49;3.43;;;2.80;;
13927;SDS011;7036;50.834;4.718;2023-09-18T06:25:16;2.37;;;2.17;;
13927;SDS011;7036;50.834;4.718;2023-09-18T06:27:43;3.10;;;2.50;;
13927;SDS011;7036;50.834;4.718;2023-09-18T06:30:10;2.33;;;2.13;;
13927;SDS011;7036;50.834;4.718;2023-09-18T06:32:37;2.50;;;2.30;;
13927;SDS011;7036;50.834;4.718;2023-09-18T06:35:04;2.87;;;2.57;;
13927;SDS011;7036;50.834;4.718;2023-09-18T06:37:31;3.00;;;2.50;;
13927;SDS011;7036;50.834;4.718;2023-09-18T06:39:58;2.33;;;2.13;;
13927;SDS011;7036;50.834;4.718;2023-09-18T06:42:25;2.30;;;2.10;;
13927;SDS011;7036;50.834;4.718;2023-09-18T06:44:52;2.57;;;2.33;;
13927;SDS011;7036;50.834;4.718;2023-09-18T06:47:19;3.13;;;2.27;;
13927;SDS011;7036;50.834;4.718;2023-09-18T06:49:46;2.07;;;1.90;;
13927;SDS011;7036;50.834;4.718;2023-09-18T06:52:13;4.20;;;2.20;;
13927;SDS011;7036;50.834;4.718;2023-09-18T06:54:40;3.50;;;2.07;;
13927;SDS011;7036;50.834;4.718;2023-09-18T06:57:07;5.73;;;2.50;;
13927;SDS011;7036;50.834;4.718;2023-09-18T06:59:34;6.23;;;2.40;;
13927;SDS011;7036;50.834;4.718;2023-09-18T07:02:01;3.60;;;2.47;;
13927;SDS011;7036;50.834;4.718;2023-09-18T07:04:28;2.70;;;2.27;;
13927;SDS011;7036;50.834;4.718;2023-09-18T07:06:54;6.77;;;2.17;;
13927;SDS011;7036;50.834;4.718;2023-09-18T07:09:21;6.37;;;2.73;;
13927;SDS011;7036;50.834;4.718;2023-09-18T07:11:48;4.97;;;2.40;;
13927;SDS011;7036;50.834;4.718;2023-09-18T07:14:15;2.47;;;2.27;;
13927;SDS011;7036;50.834;4.718;2023-09-18T07:16:42;2.63;;;2.00;;
13927;SDS011;7036;50.834;4.718;2023-09-18T07:19:09;3.37;;;2.37;;
13927;SDS011;7036;50.834;4.718;2023-09-18T07:21:36;3.63;;;2.40;;
13927;SDS011;7036;50.834;4.718;2023-09-18T07:24:03;2.80;;;2.57;;
13927;SDS011;7036;50.834;4.718;2023-09-18T07:26:31;2.83;;;2.50;;
13927;SDS011;7036;50.834;4.718;2023-09-18T07:28:57;3.77;;;2.37;;
13927;SDS011;7036;50.834;4.718;2023-09-18T07:31:24;2.30;;;2.10;;
13927;SDS011;7036;50.834;4.718;2023-09-18T07:33:51;2.87;;;2.17;;
13927;SDS011;7036;50.834;4.718;2023-09-18T07:36:18;3.43;;;2.20;;
13927;SDS011;7036;50.834;4.718;2023-09-18T07:38:45;2.10;;;1.90;;
13927;SDS011;7036;50.834;4.718;2023-09-18T07:41:12;3.53;;;2.10;;
13927;SDS011;7036;50.834;4.718;2023-09-18T07:43:39;3.57;;;2.57;;
13927;SDS011;7036;50.834;4.718;2023-09-18T07:46:06;3.43;;;2.20;;
13927;SDS011;7036;50.834;4.718;2023-09-18T07:48:33;2.33;;;2.13;;
13927;SDS011;7036;50.834;4.718;2023-09-18T07:51:00;3.93;;;2.50;;
13927;SDS011;7036;50.834;4.718;2023-09-18T07:53:27;4.07;;;2.53;;
13927;SDS011;7036;50.834;4.718;2023-09-18T07:55:57;5.63;;;2.87;;
13927;SDS011;7036;50.834;4.718;2023-09-18T07:58:23;5.30;;;2.43;;
13927;SDS011;7036;50.834;4.718;2023-09-18T08:00:50;10.53;;;2.90;;
13927;SDS011;7036;50.834;4.718;2023-09-18T08:03:17;5.70;;;2.20;;
13927;SDS011;7036;50.834;4.718;2023-09-18T08:05:44;6.13;;;2.30;;
13927;SDS011;7036;50.834;4.718;2023-09-18T08:08:13;5.90;;;2.17;;
13927;SDS011;7036;50.834;4.718;2023-09-18T08:10:40;8.67;;;2.47;;
13927;SDS011;7036;50.834;4.718;2023-09-18T08:13:07;5.60;;;2.30;;
13927;SDS011;7036;50.834;4.718;2023-09-18T08:15:34;3.83;;;2.50;;
13927;SDS011;7036;50.834;4.718;2023-09-18T08:18:01;4.77;;;2.20;;
13927;SDS011;7036;50.834;4.718;2023-09-18T08:20:29;4.03;;;2.17;;
13927;SDS011;7036;50.834;4.718;2023-09-18T08:22:55;4.03;;;2.07;;
13927;SDS011;7036;50.834;4.718;2023-09-18T08:25:22;5.43;;;2.00;;
13927;SDS011;7036;50.834;4.718;2023-09-18T08:27:49;4.80;;;2.40;;
13927;SDS011;7036;50.834;4.718;2023-09-18T08:30:16;4.33;;;2.13;;
13927;SDS011;7036;50.834;4.718;2023-09-18T08:32:43;4.90;;;2.63;;
13927;SDS011;7036;50.834;4.718;2023-09-18T08:35:10;6.37;;;2.60;;
13927;SDS011;7036;50.834;4.718;2023-09-18T08:37:37;7.17;;;2.60;;
13927;SDS011;7036;50.834;4.718;2023-09-18T08:40:05;8.57;;;2.80;;
13927;SDS011;7036;50.834;4.718;2023-09-18T08:42:33;7.07;;;2.37;;
13927;SDS011;7036;50.834;4.718;2023-09-18T08:44:59;3.97;;;2.07;;
13927;SDS011;7036;50.834;4.718;2023-09-18T08:47:27;5.27;;;2.40;;
13927;SDS011;7036;50.834;4.718;2023-09-18T08:49:53;10.97;;;2.60;;
13927;SDS011;7036;50.834;4.718;2023-09-18T08:52:20;6.30;;;2.53;;
13927;SDS011;7036;50.834;4.718;2023-09-18T08:54:47;6.77;;;2.47;;
13927;SDS011;7036;50.834;4.718;2023-09-18T08:57:14;6.80;;;2.53;;
13927;SDS011;7036;50.834;4.718;2023-09-18T08:59:41;3.13;;;2.03;;
13927;SDS011;7036;50.834;4.718;2023-09-18T09:02:08;6.77;;;2.10;;
13927;SDS011;7036;50.834;4.718;2023-09-18T09:04:35;4.87;;;2.53;;
13927;SDS011;7036;50.834;4.718;2023-09-18T09:07:02;5.13;;;2.60;;
13927;SDS011;7036;50.834;4.718;2023-09-18T09:09:29;5.60;;;2.50;;
13927;SDS011;7036;50.834;4.718;2023-09-18T09:11:56;3.83;;;2.40;;
13927;SDS011;7036;50.834;4.718;2023-09-18T09:14:23;8.20;;;2.50;;
13927;SDS011;7036;50.834;4.718;2023-09-18T09:16:50;4.40;;;2.50;;
13927;SDS011;7036;50.834;4.718;2023-09-18T09:19:18;6.03;;;2.50;;
13927;SDS011;7036;50.834;4.718;2023-09-18T09:21:45;7.87;;;3.10;;
13927;SDS011;7036;50.834;4.718;2023-09-18T09:24:11;10.83;;;2.47;;
13927;SDS011;7036;50.834;4.718;2023-09-18T09:26:38;6.70;;;2.63;;
13927;SDS011;7036;50.834;4.718;2023-09-18T09:29:15;5.93;;;2.50;;
13927;SDS011;7036;50.834;4.718;2023-09-18T09:31:40;6.33;;;2.60;;
13927;SDS011;7036;50.834;4.718;2023-09-18T09:34:07;10.43;;;2.57;;
13927;SDS011;7036;50.834;4.718;2023-09-18T09:36:34;8.87;;;2.97;;
13927;SDS011;7036;50.834;4.718;2023-09-18T09:39:01;5.17;;;2.27;;
13927;SDS011;7036;50.834;4.718;2023-09-18T09:41:28;6.23;;;2.70;;
13927;SDS011;7036;50.834;4.718;2023-09-18T09:43:55;5.20;;;2.40;;
13927;SDS011;7036;50.834;4.718;2023-09-18T09:46:22;6.83;;;3.03;;
13927;SDS011;7036;50.834;4.718;2023-09-18T09:49:00;5.93;;;2.87;;
13927;SDS011;7036;50.834;4.718;2023-09-18T09:51:28;4.73;;;2.50;;
13927;SDS011;7036;50.834;4.718;2023-09-18T09:53:54;7.03;;;3.07;;
13927;SDS011;7036;50.834;4.718;2023-09-18T09:56:21;7.83;;;2.50;;
13927;SDS011;7036;50.834;4.718;2023-09-18T09:59:05;3.23;;;2.40;;
13927;SDS011;7036;50.834;4.718;2023-09-18T10:01:27;4.97;;;2.50;;
13927;SDS011;7036;50.834;4.718;2023-09-18T10:03:54;3.70;;;2.43;;
13927;SDS011;7036;50.834;4.718;2023-09-18T10:06:21;6.00;;;3.10;;
13927;SDS011;7036;50.834;4.718;2023-09-18T10:08:48;4.17;;;3.00;;
13927;SDS011;7036;50.834;4.718;2023-09-18T10:11:14;6.10;;;2.90;;
13927;SDS011;7036;50.834;4.718;2023-09-18T10:16:16;7.77;;;2.77;;
13927;SDS011;7036;50.834;4.718;2023-09-18T10:18:47;6.87;;;3.63;;
13927;SDS011;7036;50.834;4.718;2023-09-18T10:21:25;9.50;;;3.80;;
13927;SDS011;7036;50.834;4.718;2023-09-18T10:26:25;5.17;;;3.17;;
13927;SDS011;7036;50.834;4.718;2023-09-18T10:28:53;5.97;;;3.77;;
13927;SDS011;7036;50.834;4.718;2023-09-18T10:31:19;5.47;;;3.83;;
13927;SDS011;7036;50.834;4.718;2023-09-18T10:33:46;6.13;;;3.73;;
13927;SDS011;7036;50.834;4.718;2023-09-18T10:36:13;5.20;;;3.87;;
13927;SDS011;7036;50.834;4.718;2023-09-18T10:38:40;7.07;;;3.40;;
13927;SDS011;7036;50.834;4.718;2023-09-18T10:41:07;5.57;;;3.57;;
13927;SDS011;7036;50.834;4.718;2023-09-18T10:43:34;6.20;;;3.40;;
13927;SDS011;7036;50.834;4.718;2023-09-18T10:46:01;5.13;;;3.73;;
13927;SDS011;7036;50.834;4.718;2023-09-18T10:48:27;6.27;;;3.77;;
13927;SDS011;7036;50.834;4.718;2023-09-18T10:50:56;4.73;;;3.13;;
13927;SDS011;7036;50.834;4.718;2023-09-18T10:53:25;6.70;;;3.47;;
13927;SDS011;7036;50.834;4.718;2023-09-18T10:55:50;4.97;;;3.67;;
13927;SDS011;7036;50.834;4.718;2023-09-18T10:58:22;4.77;;;4.37;;
13927;SDS011;7036;50.834;4.718;2023-09-18T11:00:44;6.67;;;5.27;;
13927;SDS011;7036;50.834;4.718;2023-09-18T11:03:15;11.17;;;6.27;;
13927;SDS011;7036;50.834;4.718;2023-09-18T11:05:46;7.83;;;5.67;;
13927;SDS011;7036;50.834;4.718;2023-09-18T11:08:25;5.13;;;4.57;;
13927;SDS011;7036;50.834;4.718;2023-09-18T11:11:17;10.80;;;5.30;;
13927;SDS011;7036;50.834;4.718;2023-09-18T11:13:28;8.27;;;4.07;;
13927;SDS011;7036;50.834;4.718;2023-09-18T11:15:58;7.47;;;4.43;;
13927;SDS011;7036;50.834;4.718;2023-09-18T11:18:22;4.93;;;3.90;;
13927;SDS011;7036;50.834;4.718;2023-09-18T11:21:06;6.30;;;4.23;;
13927;SDS011;7036;50.834;4.718;2023-09-18T11:23:18;5.87;;;4.07;;
13927;SDS011;7036;50.834;4.718;2023-09-18T11:25:45;5.50;;;4.50;;
13927;SDS011;7036;50.834;4.718;2023-09-18T11:28:13;5.37;;;3.63;;
13927;SDS011;7036;50.834;4.718;2023-09-18T11:30:48;4.33;;;3.20;;
13927;SDS011;7036;50.834;4.718;2023-09-18T11:33:06;4.40;;;4.00;;
13927;SDS011;7036;50.834;4.718;2023-09-18T11:35:33;4.87;;;3.97;;
13927;SDS011;7036;50.834;4.718;2023-09-18T11:38:04;4.30;;;3.60;;
13927;SDS011;7036;50.834;4.718;2023-09-18T11:40:34;5.23;;;3.20;;
13927;SDS011;7036;50.834;4.718;2023-09-18T11:43:19;4.33;;;3.50;;
13927;SDS011;7036;50.834;4.718;2023-09-18T11:45:48;6.60;;;3.43;;
13927;SDS011;7036;50.834;4.718;2023-09-18T11:48:13;5.73;;;3.97;;
13927;SDS011;7036;50.834;4.718;2023-09-18T11:50:41;4.97;;;3.67;;
13927;SDS011;7036;50.834;4.718;2023-09-18T11:53:06;4.13;;;3.40;;
13927;SDS011;7036;50.834;4.718;2023-09-18T11:55:34;3.80;;;3.40;;
13927;SDS011;7036;50.834;4.718;2023-09-18T11:58:00;4.17;;;3.07;;
13927;SDS011;7036;50.834;4.718;2023-09-18T12:00:27;5.00;;;2.93;;
13927;SDS011;7036;50.834;4.718;2023-09-18T12:02:54;3.90;;;3.17;;
13927;SDS011;7036;50.834;4.718;2023-09-18T12:05:22;4.87;;;3.07;;
13927;SDS011;7036;50.834;4.718;2023-09-18T12:07:49;5.20;;;3.30;;
13927;SDS011;7036;50.834;4.718;2023-09-18T12:10:16;4.00;;;3.17;;
13927;SDS011;7036;50.834;4.718;2023-09-18T12:12:43;4.37;;;3.27;;
13927;SDS011;7036;50.834;4.718;2023-09-18T12:15:16;5.77;;;3.17;;
13927;SDS011;7036;50.834;4.718;2023-09-18T12:17:39;5.67;;;3.60;;
13927;SDS011;7036;50.834;4.718;2023-09-18T12:20:06;5.33;;;3.27;;
13927;SDS011;7036;50.834;4.718;2023-09-18T12:22:33;13.57;;;3.57;;
13927;SDS011;7036;50.834;4.718;2023-09-18T12:27:38;4.07;;;2.70;;
13927;SDS011;7036;50.834;4.718;2023-09-18T12:30:06;4.60;;;3.10;;
13927;SDS011;7036;50.834;4.718;2023-09-18T12:32:37;7.00;;;3.27;;
13927;SDS011;7036;50.834;4.718;2023-09-18T12:35:05;6.70;;;3.10;;
13927;SDS011;7036;50.834;4.718;2023-09-18T12:37:42;3.50;;;2.53;;
13927;SDS011;7036;50.834;4.718;2023-09-18T12:40:00;3.57;;;3.10;;
13927;SDS011;7036;50.834;4.718;2023-09-18T12:42:27;3.00;;;2.73;;
13927;SDS011;7036;50.834;4.718;2023-09-18T12:44:54;6.50;;;3.17;;
13927;SDS011;7036;50.834;4.718;2023-09-18T12:47:21;7.20;;;3.40;;
13927;SDS011;7036;50.834;4.718;2023-09-18T12:49:48;2.73;;;2.53;;
13927;SDS011;7036;50.834;4.718;2023-09-18T12:52:21;3.40;;;2.60;;
13927;SDS011;7036;50.834;4.718;2023-09-18T12:54:43;3.70;;;2.97;;
13927;SDS011;7036;50.834;4.718;2023-09-18T12:57:09;5.53;;;2.93;;
13927;SDS011;7036;50.834;4.718;2023-09-18T12:59:36;2.97;;;2.67;;
13927;SDS011;7036;50.834;4.718;2023-09-18T13:02:05;3.57;;;2.83;;
13927;SDS011;7036;50.834;4.718;2023-09-18T13:04:31;6.17;;;3.17;;
13927;SDS011;7036;50.834;4.718;2023-09-18T13:07:05;4.83;;;2.33;;
13927;SDS011;7036;50.834;4.718;2023-09-18T13:09:29;3.67;;;3.00;;
13927;SDS011;7036;50.834;4.718;2023-09-18T13:11:57;3.47;;;2.40;;
13927;SDS011;7036;50.834;4.718;2023-09-18T13:14:24;3.17;;;2.80;;
13927;SDS011;7036;50.834;4.718;2023-09-18T13:16:50;6.63;;;3.07;;
13927;SDS011;7036;50.834;4.718;2023-09-18T13:19:17;4.47;;;2.50;;
13927;SDS011;7036;50.834;4.718;2023-09-18T13:21:49;3.60;;;2.53;;
13927;SDS011;7036;50.834;4.718;2023-09-18T13:24:29;4.80;;;2.13;;
13927;SDS011;7036;50.834;4.718;2023-09-18T13:26:56;4.50;;;2.20;;
13927;SDS011;7036;50.834;4.718;2023-09-18T13:29:23;2.50;;;2.20;;
13927;SDS011;7036;50.834;4.718;2023-09-18T13:31:50;3.63;;;2.37;;
13927;SDS011;7036;50.834;4.718;2023-09-18T13:34:20;4.20;;;2.53;;
13927;SDS011;7036;50.834;4.718;2023-09-18T13:36:46;2.90;;;2.30;;
13927;SDS011;7036;50.834;4.718;2023-09-18T13:39:13;4.03;;;2.77;;
13927;SDS011;7036;50.834;4.718;2023-09-18T13:41:40;2.80;;;2.30;;
13927;SDS011;7036;50.834;4.718;2023-09-18T13:44:07;3.97;;;2.60;;
13927;SDS011;7036;50.834;4.718;2023-09-18T13:46:34;2.70;;;2.00;;
13927;SDS011;7036;50.834;4.718;2023-09-18T13:49:03;4.73;;;2.50;;
13927;SDS011;7036;50.834;4.718;2023-09-18T13:51:29;4.20;;;2.60;;
13927;SDS011;7036;50.834;4.718;2023-09-18T13:53:55;3.10;;;2.53;;
13927;SDS011;7036;50.834;4.718;2023-09-18T13:56:22;16.47;;;3.93;;
13927;SDS011;7036;50.834;4.718;2023-09-18T13:58:49;6.03;;;2.80;;
13927;SDS011;7036;50.834;4.718;2023-09-18T14:01:16;2.87;;;2.40;;
13927;SDS011;7036;50.834;4.718;2023-09-18T14:03:43;3.83;;;2.73;;
13927;SDS011;7036;50.834;4.718;2023-09-18T14:06:10;2.80;;;2.40;;
13927;SDS011;7036;50.834;4.718;2023-09-18T14:08:36;4.10;;;2.80;;
13927;SDS011;7036;50.834;4.718;2023-09-18T14:11:03;6.60;;;2.53;;
13927;SDS011;7036;50.834;4.718;2023-09-18T14:13:30;3.47;;;2.60;;
13927;SDS011;7036;50.834;4.718;2023-09-18T14:15:57;4.77;;;2.70;;
13927;SDS011;7036;50.834;4.718;2023-09-18T14:18:24;4.90;;;2.30;;
13927;SDS011;7036;50.834;4.718;2023-09-18T14:20:51;3.87;;;2.47;;
13927;SDS011;7036;50.834;4.718;2023-09-18T14:23:18;4.73;;;2.20;;
13927;SDS011;7036;50.834;4.718;2023-09-18T14:25:45;9.90;;;2.33;;
13927;SDS011;7036;50.834;4.718;2023-09-18T14:28:12;4.67;;;2.13;;
13927;SDS011;7036;50.834;4.718;2023-09-18T14:30:39;5.40;;;2.53;;
13927;SDS011;7036;50.834;4.718;2023-09-18T14:33:05;8.47;;;2.57;;
13927;SDS011;7036;50.834;4.718;2023-09-18T14:35:32;3.73;;;2.43;;
13927;SDS011;7036;50.834;4.718;2023-09-18T14:37:59;4.13;;;2.33;;
13927;SDS011;7036;50.834;4.718;2023-09-18T14:40:26;3.53;;;2.67;;
13927;SDS011;7036;50.834;4.718;2023-09-18T14:42:53;6.50;;;2.20;;
13927;SDS011;7036;50.834;4.718;2023-09-18T14:45:20;5.83;;;2.60;;
13927;SDS011;7036;50.834;4.718;2023-09-18T14:47:47;4.03;;;2.37;;
13927;SDS011;7036;50.834;4.718;2023-09-18T14:50:15;7.10;;;2.57;;
13927;SDS011;7036;50.834;4.718;2023-09-18T14:52:41;6.30;;;2.50;;
13927;SDS011;7036;50.834;4.718;2023-09-18T14:55:08;3.97;;;2.67;;
13927;SDS011;7036;50.834;4.718;2023-09-18T14:57:35;3.63;;;2.23;;
13927;SDS011;7036;50.834;4.718;2023-09-18T15:00:02;4.33;;;2.20;;
13927;SDS011;7036;50.834;4.718;2023-09-18T15:02:29;3.63;;;2.60;;
13927;SDS011;7036;50.834;4.718;2023-09-18T15:04:56;3.17;;;2.37;;
13927;SDS011;7036;50.834;4.718;2023-09-18T15:07:23;2.47;;;2.27;;